Time;durP1;ratioP1;P1;durP2;ratioP2;P2;SDS_P1;SDS_P2;PMS_P1;PMS_P2;Temp;Humidity;BMP_temperature;BMP_pressure;BME280_temperature;BME280_humidity;BME280_pressure;Samples;Min_cycle;Max_cycle;Signal;HPM_P1;HPM_P2
2021/11/28 00:01:53;;;;;;;;;;;;;;;4.43;77.47;98089.16;10302980;28;20105;-63
2021/11/28 00:07:02;;;;;;;12.10;10.88;;;;;;;4.43;76.97;98081.25;10301691;28;19922;-63
2021/11/28 00:12:12;;;;;;;10.13;9.15;;;;;;;4.40;76.75;98082.34;10258420;23;20085;-69
2021/11/28 00:17:13;;;;;;;9.48;8.57;;;;;;;4.46;77.07;98091.53;10260886;28;20043;-65
2021/11/28 00:22:15;;;;;;;9.80;8.75;;;;;;;4.42;77.09;98088.31;10262458;28;20053;-66
2021/11/28 00:27:17;;;;;;;9.93;8.38;;;;;;;4.34;76.85;98087.31;10266295;28;20114;-67
2021/11/28 00:32:18;;;;;;;9.38;8.57;;;;;;;4.40;76.77;98092.06;10265712;28;20055;-66
2021/11/28 00:37:20;;;;;;;11.32;9.40;;;;;;;4.51;76.70;98089.28;10265770;28;20224;-66
2021/11/28 00:42:21;;;;;;;10.63;9.38;;;;;;;4.41;76.33;98098.97;10273357;28;20149;-66
2021/11/28 00:47:24;;;;;;;9.10;8.15;;;;;;;4.40;76.98;98100.78;10262690;28;20138;-66
2021/11/28 00:52:25;;;;;;;8.90;8.02;;;;;;;4.43;76.79;98108.44;10262343;28;20130;-65
2021/11/28 00:57:27;;;;;;;10.85;9.75;;;;;;;4.43;77.26;98110.25;10262913;28;20055;-66
2021/11/28 01:02:28;;;;;;;10.57;9.05;;;;;;;4.42;76.90;98106.75;10262432;28;20059;-65
2021/11/28 01:07:32;;;;;;;9.85;8.68;;;;;;;4.52;76.45;98117.31;10276545;28;20062;-65
2021/11/28 01:12:34;;;;;;;12.70;9.18;;;;;;;4.54;76.35;98114.53;10263490;28;20517;-66
2021/11/28 01:17:38;;;;;;;9.88;8.70;;;;;;;4.53;76.35;98116.31;10262915;28;20781;-66
2021/11/28 01:22:39;;;;;;;8.77;7.30;;;;;;;4.56;76.32;98117.84;10227184;28;20256;-66
2021/11/28 01:27:42;;;;;;;8.90;8.00;;;;;;;4.63;75.83;98113.72;10230021;28;20133;-67
2021/11/28 01:32:45;;;;;;;9.10;7.57;;;;;;;4.56;75.89;98118.72;10278124;28;20424;-66
2021/11/28 01:37:49;;;;;;;9.10;8.02;;;;;;;4.55;75.91;98106.50;10259905;28;20133;-66
2021/11/28 01:42:53;;;;;;;7.63;6.97;;;;;;;4.57;75.89;98109.00;10261732;28;22724;-67
2021/11/28 01:47:57;;;;;;;9.50;7.47;;;;;;;4.69;75.64;98110.50;10265546;28;20117;-67
2021/11/28 01:53:00;;;;;;;6.25;5.50;;;;;;;4.71;75.00;98103.28;10227679;28;20498;-66
2021/11/28 01:58:04;;;;;;;6.63;4.82;;;;;;;4.66;73.52;98105.53;10222467;28;20200;-66
2021/11/28 02:03:06;;;;;;;5.45;4.30;;;;;;;4.66;72.21;98107.34;10225456;28;20135;-65
2021/11/28 02:08:08;;;;;;;6.55;4.45;;;;;;;4.71;72.72;98105.94;10222939;28;20134;-65
2021/11/28 02:13:10;;;;;;;5.38;4.78;;;;;;;4.68;72.77;98094.84;10220916;28;20134;-65
2021/11/28 02:18:12;;;;;;;6.43;4.43;;;;;;;4.76;71.90;98109.00;10213508;28;20138;-65
2021/11/28 02:23:14;;;;;;;5.78;3.65;;;;;;;4.66;72.08;98112.59;10218355;28;20050;-65
2021/11/28 02:28:15;;;;;;;4.97;4.25;;;;;;;4.51;72.18;98113.00;10213151;28;20134;-65
2021/11/28 02:33:17;;;;;;;6.30;3.80;;;;;;;4.60;72.45;98104.28;10221291;28;20469;-67
2021/11/28 02:38:19;;;;;;;7.82;3.83;;;;;;;4.57;71.96;98112.44;10214268;28;20058;-66
2021/11/28 02:43:22;;;;;;;6.65;4.30;;;;;;;4.53;71.56;98118.13;10230510;28;20066;-66
2021/11/28 02:48:23;;;;;;;4.57;4.05;;;;;;;4.58;71.65;98103.59;10259526;28;20129;-66
2021/11/28 02:53:25;;;;;;;5.28;4.10;;;;;;;4.67;72.49;98103.72;10262836;28;20563;-65
2021/11/28 02:58:28;;;;;;;6.45;4.10;;;;;;;4.71;71.36;98111.19;10258842;28;20047;-65
2021/11/28 03:03:29;;;;;;;4.95;4.40;;;;;;;4.72;71.77;98109.41;10259795;28;20592;-66
2021/11/28 03:08:31;;;;;;;5.22;4.40;;;;;;;4.64;71.79;98114.53;10262412;28;20577;-66
2021/11/28 03:13:36;;;;;;;7.03;3.95;;;;;;;4.58;72.40;98124.66;10267034;28;20053;-65
2021/11/28 03:18:38;;;;;;;;;;;;;;;4.65;71.57;98129.38;10273965;28;20135;-64
2021/11/28 03:23:42;;;;;;;5.75;3.97;;;;;;;4.69;71.87;98130.78;10267577;28;20456;-67
2021/11/28 03:28:47;;;;;;;4.43;3.45;;;;;;;4.75;71.76;98119.69;10272064;28;20049;-67
2021/11/28 03:33:49;;;;;;;6.15;4.07;;;;;;;4.65;71.84;98124.13;10281631;28;20050;-65
2021/11/28 03:38:51;;;;;;;4.63;3.80;;;;;;;4.60;71.66;98124.53;10271380;28;20082;-67
2021/11/28 03:43:56;;;;;;;5.88;4.15;;;;;;;4.58;72.24;98111.50;10263527;28;20062;-66
2021/11/28 03:48:59;;;;;;;5.68;3.75;;;;;;;4.50;72.14;98098.16;10291488;28;20668;-65
2021/11/28 03:54:01;;;;;;;4.60;3.67;;;;;;;4.59;73.00;98113.16;10241512;28;20477;-66
2021/11/28 03:59:03;;;;;;;6.28;4.47;;;;;;;4.43;73.35;98121.59;10259647;28;20767;-63
2021/11/28 04:04:04;;;;;;;5.30;4.15;;;;;;;4.37;74.00;98124.78;10270048;28;20050;-66
2021/11/28 04:09:06;;;;;;;4.22;3.83;;;;;;;4.37;75.89;98121.31;10270716;28;20183;-66
2021/11/28 04:14:07;;;;;;;5.80;4.38;;;;;;;4.39;75.58;98127.28;10270163;28;20128;-66
2021/11/28 04:19:09;;;;;;;5.72;4.60;;;;;;;4.49;75.91;98122.00;10269351;28;20347;-65
2021/11/28 04:24:12;;;;;;;6.18;5.57;;;;;;;4.50;75.17;98124.50;10282707;28;20047;-65
2021/11/28 04:29:13;;;;;;;6.05;4.60;;;;;;;4.50;75.33;98126.31;10263830;28;20043;-67
2021/11/28 04:34:16;;;;;;;6.75;4.85;;;;;;;4.44;74.70;98130.31;10262332;28;20047;-66
2021/11/28 04:39:17;;;;;;;6.80;4.88;;;;;;;4.47;75.31;98127.41;10263930;28;20422;-65
2021/11/28 04:44:22;;;;;;;6.72;4.45;;;;;;;4.52;76.21;98122.59;10263947;28;20039;-64
2021/11/28 04:49:24;;;;;;;6.35;4.45;;;;;;;4.59;75.25;98123.69;10267519;28;20062;-64
2021/11/28 04:54:25;;;;;;;5.78;4.65;;;;;;;4.51;75.45;98135.91;10266617;28;20046;-65
2021/11/28 04:59:27;;;;;;;5.68;5.15;;;;;;;4.50;76.42;98123.69;10263391;28;20152;-65
2021/11/28 05:04:28;;;;;;;6.82;5.40;;;;;;;4.69;75.81;98128.97;10274224;28;20100;-65
2021/11/28 05:09:30;;;;;;;7.38;5.90;;;;;;;4.69;76.32;98112.34;10265446;28;20118;-64
2021/11/28 05:14:31;;;;;;;5.40;4.88;;;;;;;4.78;76.72;98112.31;10262242;28;20165;-64
2021/11/28 05:19:33;;;;;;;7.05;5.53;;;;;;;4.80;76.34;98114.81;10262177;28;20534;-65
2021/11/28 05:24:34;;;;;;;7.05;5.55;;;;;;;4.82;76.65;98123.44;10262152;28;20078;-64
2021/11/28 05:29:36;;;;;;;5.78;5.18;;;;;;;4.86;76.83;98124.78;10267077;28;20050;-65
2021/11/28 05:34:38;;;;;;;6.68;5.78;;;;;;;4.82;76.28;98123.44;10260884;28;20126;-65
2021/11/28 05:39:39;;;;;;;8.38;5.97;;;;;;;4.75;76.82;98119.69;10260974;28;20051;-65
2021/11/28 05:44:41;;;;;;;15.13;7.10;;;;;;;4.64;75.47;98125.06;10264534;28;20470;-65
2021/11/28 05:49:42;;;;;;;7.45;5.82;;;;;;;4.62;76.21;98113.84;10260657;28;23182;-65
2021/11/28 05:54:46;;;;;;;8.15;6.00;;;;;;;4.68;76.16;98118.56;10263216;28;20047;-66
2021/11/28 05:59:48;;;;;;;6.40;5.80;;;;;;;4.64;75.54;98122.44;10260681;28;20051;-66
2021/11/28 06:04:49;;;;;;;7.90;6.10;;;;;;;4.57;75.26;98125.63;10263378;28;20125;-66
2021/11/28 06:09:51;;;;;;;8.77;6.60;;;;;;;4.66;75.35;98123.97;10260532;28;20123;-66
2021/11/28 06:14:52;;;;;;;7.18;6.43;;;;;;;4.70;76.04;98119.25;10260043;28;20629;-66
2021/11/28 06:19:53;;;;;;;10.32;7.05;;;;;;;4.69;76.72;98130.78;10259683;28;20047;-66
2021/11/28 06:24:55;;;;;;;9.82;6.75;;;;;;;4.70;76.56;98129.78;10259549;28;20160;-65
2021/11/28 06:29:56;;;;;;;8.48;6.22;;;;;;;4.76;76.52;98135.34;10258939;28;20473;-66
2021/11/28 06:34:58;;;;;;;6.70;6.05;;;;;;;4.70;76.85;98140.31;10239096;28;20246;-65
2021/11/28 06:40:00;;;;;;;9.98;7.25;;;;;;;4.72;75.97;98143.69;10221183;28;20071;-65
2021/11/28 06:45:02;;;;;;;8.80;6.95;;;;;;;4.73;74.69;98145.34;10220304;28;20494;-66
2021/11/28 06:50:19;;;;;;;8.93;7.63;;;;;;;4.59;74.39;98143.94;10218341;28;20546;-65
2021/11/28 06:55:20;;;;;;;8.20;7.40;;;;;;;4.50;74.98;98139.50;10222077;28;20077;-65
2021/11/28 07:00:22;;;;;;;7.53;6.82;;;;;;;4.53;74.88;98145.31;10218574;28;21065;-65
2021/11/28 07:05:23;;;;;;;8.88;6.60;;;;;;;4.38;74.96;98152.78;10218234;28;20063;-65
2021/11/28 07:10:25;;;;;;;8.48;7.47;;;;;;;4.42;75.35;98154.16;10218369;28;20053;-66
2021/11/28 07:15:26;;;;;;;9.52;7.07;;;;;;;4.44;75.02;98164.56;10232500;28;20062;-65
2021/11/28 07:20:27;;;;;;;8.80;7.90;;;;;;;4.37;75.47;98166.09;10217939;28;20049;-64
2021/11/28 07:25:30;;;;;;;11.18;8.20;;;;;;;4.42;75.47;98175.25;10219724;28;20499;-65
2021/11/28 07:30:31;;;;;;;8.07;7.38;;;;;;;4.34;75.42;98187.41;10261033;28;20161;-66
2021/11/28 07:35:33;;;;;;;9.13;8.20;;;;;;;4.46;75.52;98196.03;10256604;28;20216;-66
2021/11/28 07:40:34;;;;;;;9.02;6.97;;;;;;;4.48;74.77;98194.97;10257827;28;20055;-67
2021/11/28 07:45:36;;;;;;;7.82;7.13;;;;;;;4.47;75.24;98192.47;10251604;28;20046;-66
2021/11/28 07:50:37;;;;;;;8.90;7.65;;;;;;;4.64;75.07;98204.13;10236717;28;20069;-64
2021/11/28 07:55:39;;;;;;;10.07;8.93;;;;;;;4.58;74.85;98203.72;10245351;28;20055;-65
2021/11/28 08:00:40;;;;;;;8.23;7.40;;;;;;;4.57;75.74;98206.50;10251248;28;20070;-65
2021/11/28 08:05:42;;;;;;;8.50;7.70;;;;;;;4.62;76.75;98213.97;10252319;28;20098;-66
2021/11/28 08:10:44;;;;;;;9.05;7.63;;;;;;;4.64;76.87;98210.25;10254105;28;20078;-66
2021/11/28 08:15:46;;;;;;;7.50;6.88;;;;;;;4.67;76.84;98204.72;10250197;28;20058;-66
2021/11/28 08:20:48;;;;;;;20.75;17.40;;;;;;;4.69;76.71;98217.75;10254125;28;20066;-64
2021/11/28 08:25:49;;;;;;;8.63;7.43;;;;;;;4.77;77.52;98226.66;10254296;28;20509;-64
2021/11/28 08:30:51;;;;;;;6.38;5.88;;;;;;;4.75;77.35;98227.75;10247825;28;20059;-65
2021/11/28 08:35:52;;;;;;;15.45;14.05;;;;;;;4.68;77.71;98227.44;10251808;28;20055;-66
2021/11/28 08:40:54;;;;;;;12.35;11.07;;;;;;;4.63;77.34;98231.47;10245983;28;20547;-66
2021/11/28 08:45:55;;;;;;;13.80;12.60;;;;;;;4.71;77.05;98237.72;10250024;28;20157;-65
2021/11/28 08:50:57;;;;;;;12.77;11.45;;;;;;;4.78;76.26;98245.94;10247947;28;20051;-65
2021/11/28 08:55:59;;;;;;;7.57;6.88;;;;;;;4.78;76.84;98240.66;10248147;28;20152;-65
2021/11/28 09:01:01;;;;;;;14.00;12.40;;;;;;;4.85;76.61;98246.19;10261289;28;20131;-65
2021/11/28 09:06:03;;;;;;;18.35;16.63;;;;;;;4.83;76.22;98245.50;10243830;28;20074;-65
2021/11/28 09:11:07;;;;;;;19.50;17.77;;;;;;;4.84;75.72;98240.09;10262432;28;20564;-66
2021/11/28 09:16:10;;;;;;;8.68;7.72;;;;;;;4.91;74.83;98246.50;10247536;28;20057;-65
2021/11/28 09:21:15;;;;;;;10.50;9.43;;;;;;;4.87;74.88;98242.47;10260155;28;20191;-64
2021/11/28 09:26:17;;;;;;;9.75;7.88;;;;;;;4.99;75.53;98255.53;10259198;28;20057;-64
2021/11/28 09:31:18;;;;;;;9.38;7.82;;;;;;;4.99;75.57;98258.19;10246695;28;20365;-65
2021/11/28 09:36:20;;;;;;;7.68;6.90;;;;;;;5.00;75.44;98257.19;10245014;28;20070;-66
2021/11/28 09:41:23;;;;;;;8.48;7.25;;;;;;;5.12;74.79;98261.38;10245883;28;20055;-65
2021/11/28 09:46:25;;;;;;;7.38;6.63;;;;;;;5.11;74.59;98254.44;10229585;28;20734;-68
2021/11/28 09:51:28;;;;;;;9.20;8.23;;;;;;;5.03;74.37;98252.50;10224528;28;21077;-67
2021/11/28 09:56:34;;;;;;;8.70;7.80;;;;;;;5.22;74.38;98251.66;10246664;28;20078;-67
2021/11/28 10:01:39;;;;;;;8.23;7.43;;;;;;;5.24;73.24;98249.72;10244232;28;20058;-68
2021/11/28 10:06:42;;;;;;;9.23;8.32;;;;;;;5.27;72.61;98252.09;10246193;28;20058;-68
2021/11/28 10:12:13;;;;;;;11.73;9.23;;;;;;;5.33;72.93;98253.34;10242832;28;20094;-68
2021/11/28 10:17:17;;;;;;;8.35;7.50;;;;;;;5.36;72.79;98237.22;10242389;28;20495;-66
2021/11/28 10:22:19;;;;;;;10.67;8.53;;;;;;;5.29;72.30;98226.38;10249374;28;20153;-66
2021/11/28 10:27:37;;;;;;;8.60;7.50;;;;;;;5.23;73.14;98226.94;10247607;28;20349;-67
2021/11/28 10:32:41;;;;;;;8.55;7.75;;;;;;;5.24;73.27;98238.31;10232723;28;20113;-66
2021/11/28 10:37:45;;;;;;;9.25;8.35;;;;;;;5.12;73.10;98229.75;10254117;28;20129;-64
2021/11/28 10:42:50;;;;;;;13.13;11.93;;;;;;;5.21;73.18;98228.91;10248535;28;20054;-65
2021/11/28 10:47:54;;;;;;;8.70;7.90;;;;;;;5.17;72.92;98222.22;10245260;28;20066;-64
2021/11/28 10:53:10;;;;;;;11.50;10.50;;;;;;;5.23;72.96;98213.75;10242519;28;20058;-65
2021/11/28 10:58:19;;;;;;;10.15;9.15;;;;;;;5.35;73.23;98213.63;10245024;28;20380;-66
2021/11/28 11:03:29;;;;;;;8.50;7.70;;;;;;;5.43;72.28;98205.81;10242089;28;20088;-66
2021/11/28 11:08:31;;;;;;;9.70;8.73;;;;;;;5.43;72.47;98216.38;10259609;28;20757;-66
2021/11/28 11:13:32;;;;;;;8.52;7.72;;;;;;;5.55;71.93;98207.31;10244440;28;20047;-66
2021/11/28 11:18:36;;;;;;;9.45;8.55;;;;;;;5.62;72.22;98208.44;10247062;28;20505;-66
2021/11/28 11:23:42;;;;;;;8.32;7.63;;;;;;;5.84;71.15;98206.44;10242534;28;20045;-64
2021/11/28 11:28:57;;;;;;;;;;;;;;;5.81;70.97;98210.19;10235615;28;20063;-65
2021/11/28 11:33:59;;;;;;;7.78;6.78;;;;;;;5.86;70.99;98217.69;10252999;28;19922;-66
2021/11/28 11:39:00;;;;;;;8.32;7.50;;;;;;;6.01;70.91;98216.28;10249455;28;20461;-66
2021/11/28 11:44:01;;;;;;;7.90;7.15;;;;;;;5.97;70.63;98209.59;10252959;28;20052;-66
2021/11/28 11:49:03;;;;;;;8.32;7.53;;;;;;;5.90;70.56;98213.78;10251705;28;20054;-65
2021/11/28 11:54:05;;;;;;;8.15;7.35;;;;;;;5.92;70.13;98209.19;10266820;28;20046;-66
2021/11/28 11:59:21;;;;;;;7.00;6.30;;;;;;;5.82;70.36;98205.75;10268412;28;20077;-66
2021/11/28 12:04:37;;;;;;;8.85;7.90;;;;;;;5.82;70.31;98211.03;10257331;28;20090;-66
2021/11/28 12:09:41;;;;;;;6.90;6.25;;;;;;;5.73;70.90;98201.31;10257669;28;20059;-65
2021/11/28 12:15:26;;;;;;;7.35;6.30;;;;;;;5.74;70.61;98209.09;10252043;28;20068;-66
2021/11/28 12:20:43;;;;;;;13.98;12.60;;;;;;;5.88;69.26;98209.63;10249331;28;20741;-66
2021/11/28 12:25:47;;;;;;;6.88;6.28;;;;;;;5.63;70.01;98173.16;10247347;28;20058;-66
2021/11/28 12:30:51;;;;;;;7.22;5.93;;;;;;;5.59;70.14;98203.44;10252150;28;20141;-66
2021/11/28 12:35:53;;;;;;;6.03;5.50;;;;;;;5.58;70.34;98199.13;10266058;28;20781;-66
2021/11/28 12:40:54;;;;;;;6.75;6.07;;;;;;;5.49;70.14;98195.56;10250291;28;20416;-65
2021/11/28 12:45:56;;;;;;;9.27;8.02;;;;;;;5.59;70.33;98203.44;10249241;28;20057;-65
2021/11/28 12:51:02;;;;;;;30.75;27.63;;;;;;;5.66;70.27;98209.81;10246356;28;20551;-66
2021/11/28 12:56:10;;;;;;;9.82;8.85;;;;;;;5.72;70.74;98212.84;10239051;28;20050;-66
2021/11/28 13:01:52;;;;;;;15.13;13.65;;;;;;;5.65;70.28;98216.06;10247958;28;20051;-67
2021/11/28 13:07:22;;;;;;;9.27;8.35;;;;;;;5.71;70.61;98208.56;10242169;28;20063;-66
2021/11/28 13:12:25;;;;;;;6.47;5.90;;;;;;;5.60;70.32;98210.38;10249218;28;20045;-66
2021/11/28 13:17:26;;;;;;;7.07;6.38;;;;;;;5.72;70.48;98199.66;10240494;28;20090;-67
2021/11/28 13:22:36;;;;;;;7.07;6.40;;;;;;;5.69;70.27;98207.84;10242115;28;20222;-68
2021/11/28 13:27:38;;;;;;;7.78;6.47;;;;;;;5.66;69.87;98215.09;10241990;28;20053;-65
2021/11/28 13:32:39;;;;;;;8.90;6.70;;;;;;;5.63;70.31;98206.63;10244006;28;20059;-64
2021/11/28 13:37:40;;;;;;;6.60;6.00;;;;;;;5.77;70.14;98208.81;10245914;28;20051;-65
2021/11/28 13:42:43;;;;;;;5.80;5.30;;;;;;;5.77;69.87;98205.34;10236214;28;20104;-64
2021/11/28 13:47:51;;;;;;;5.93;5.35;;;;;;;5.87;70.49;98208.81;10257884;28;20448;-64
2021/11/28 13:53:08;;;;;;;5.60;5.10;;;;;;;5.96;70.04;98207.94;10259944;28;20058;-65
2021/11/28 13:58:09;;;;;;;4.88;4.47;;;;;;;5.99;69.89;98210.31;10256886;28;20051;-66
2021/11/28 14:03:10;;;;;;;5.43;4.85;;;;;;;5.94;69.63;98209.88;10255250;28;20065;-68
2021/11/28 14:08:12;;;;;;;6.88;4.60;;;;;;;6.02;70.79;98217.13;10258762;28;20147;-65
2021/11/28 14:13:13;;;;;;;4.82;4.32;;;;;;;6.06;69.91;98217.66;10262802;28;20046;-65
2021/11/28 14:18:15;;;;;;;5.55;5.05;;;;;;;5.97;69.43;98222.81;10265158;28;20576;-66
2021/11/28 14:23:17;;;;;;;4.90;4.38;;;;;;;5.81;69.47;98231.31;10269783;28;20126;-66
2021/11/28 14:28:22;;;;;;;5.07;4.57;;;;;;;5.69;70.19;98239.53;10270774;28;20073;-66
2021/11/28 14:33:33;;;;;;;5.20;4.47;;;;;;;5.66;70.75;98245.97;10273165;28;20157;-65
2021/11/28 14:38:40;;;;;;;5.22;4.72;;;;;;;5.72;71.09;98241.88;10266225;28;20061;-64
2021/11/28 14:43:47;;;;;;;5.18;4.55;;;;;;;5.80;70.37;98248.13;10270660;28;20126;-65
2021/11/28 14:49:00;;;;;;;5.35;4.85;;;;;;;5.85;70.39;98250.34;10269310;28;20072;-65
2021/11/28 14:54:08;;;;;;;7.47;5.45;;;;;;;5.83;70.53;98250.50;10270008;28;20063;-65
2021/11/28 14:59:14;;;;;;;6.05;5.55;;;;;;;5.58;71.64;98251.09;10270348;28;20042;-65
2021/11/28 15:04:16;;;;;;;5.70;5.10;;;;;;;5.76;70.76;98259.13;10265519;28;20394;-65
2021/11/28 15:09:20;;;;;;;5.47;4.97;;;;;;;5.80;71.43;98255.22;10279124;28;20054;-65
2021/11/28 15:14:24;;;;;;;6.00;5.40;;;;;;;5.30;73.69;98267.63;10248959;28;20051;-66
2021/11/28 15:19:29;;;;;;;8.38;6.57;;;;;;;5.04;75.77;98271.78;10250624;28;20161;-65
2021/11/28 15:24:31;;;;;;;6.45;5.85;;;;;;;4.54;76.68;98281.38;10236935;28;20122;-65
2021/11/28 15:29:33;;;;;;;6.40;5.88;;;;;;;4.58;77.38;98282.78;10236171;28;20055;-65
2021/11/28 15:34:35;;;;;;;6.68;6.07;;;;;;;4.75;76.37;98280.47;10232814;28;20059;-65
2021/11/28 15:39:37;;;;;;;6.72;6.13;;;;;;;4.74;76.61;98294.59;10238388;28;20059;-64
2021/11/28 15:44:38;;;;;;;7.43;6.72;;;;;;;4.79;76.73;98287.13;10236398;28;20051;-65
2021/11/28 15:49:40;;;;;;;8.20;6.70;;;;;;;4.86;76.83;98300.59;10236295;28;20561;-65
2021/11/28 15:54:42;;;;;;;9.23;8.32;;;;;;;4.85;76.89;98301.56;10235788;28;20514;-65
2021/11/28 15:59:46;;;;;;;6.27;5.50;;;;;;;4.83;76.46;98303.50;10234327;28;20047;-65
2021/11/28 16:04:47;;;;;;;6.75;6.00;;;;;;;4.83;77.52;98301.69;10231562;28;20366;-64
2021/11/28 16:09:49;;;;;;;5.07;4.57;;;;;;;4.77;77.17;98304.88;10241326;28;20577;-65
2021/11/28 16:14:50;;;;;;;5.05;3.70;;;;;;;4.73;76.98;98303.50;10231426;28;20521;-66
2021/11/28 16:19:51;;;;;;;5.05;3.45;;;;;;;4.65;76.13;98303.31;10235276;28;20130;-65
2021/11/28 16:24:53;;;;;;;4.68;3.92;;;;;;;4.60;77.06;98315.09;10249256;28;20062;-65
2021/11/28 16:29:54;;;;;;;7.82;4.90;;;;;;;4.69;78.12;98321.38;10234632;28;20143;-67
2021/11/28 16:34:56;;;;;;;5.90;4.75;;;;;;;4.74;77.09;98327.09;10271609;28;20497;-67
2021/11/28 16:39:58;;;;;;;4.32;3.67;;;;;;;4.76;77.12;98335.69;10274461;28;20051;-66
2021/11/28 16:44:59;;;;;;;3.85;3.55;;;;;;;4.79;77.12;98339.88;10274838;28;20051;-65
2021/11/28 16:50:00;;;;;;;3.22;2.80;;;;;;;4.82;76.63;98336.97;10255735;28;20069;-65
2021/11/28 16:55:02;;;;;;;3.85;3.47;;;;;;;4.84;76.55;98350.00;10256860;28;20534;-68
2021/11/28 17:00:05;;;;;;;4.70;3.75;;;;;;;4.80;76.72;98356.50;10270978;28;20071;-65
2021/11/28 17:05:08;;;;;;;5.57;4.60;;;;;;;4.80;76.49;98345.97;10266526;28;20125;-65
2021/11/28 17:10:12;;;;;;;6.43;5.20;;;;;;;4.80;76.83;98361.78;10266190;28;20572;-64
2021/11/28 17:15:13;;;;;;;7.35;5.97;;;;;;;4.67;77.77;98369.91;10264632;28;20146;-65
2021/11/28 17:20:17;;;;;;;6.90;6.18;;;;;;;4.57;77.98;98373.31;10249676;28;20995;-65
2021/11/28 17:25:38;;;;;;;8.10;7.30;;;;;;;4.55;78.60;98370.00;10242481;28;20470;-65
2021/11/28 17:30:40;;;;;;;7.47;6.78;;;;;;;4.53;78.51;98357.91;10248913;28;20125;-65
2021/11/28 17:35:41;;;;;;;7.38;6.30;;;;;;;4.86;78.25;98383.16;10258477;28;20142;-66
2021/11/28 17:40:43;;;;;;;6.53;5.93;;;;;;;4.91;76.70;98380.16;10260924;28;20053;-65
2021/11/28 17:45:45;;;;;;;7.18;6.25;;;;;;;4.87;76.84;98390.09;10260662;28;20521;-65
2021/11/28 17:50:46;;;;;;;7.47;6.78;;;;;;;4.80;77.68;98394.22;10263382;28;20051;-65
2021/11/28 17:55:48;;;;;;;8.90;7.95;;;;;;;4.71;78.65;98395.03;10260333;28;20130;-65
2021/11/28 18:00:50;;;;;;;8.93;8.05;;;;;;;4.70;79.06;98398.63;10264192;28;20140;-65
2021/11/28 18:05:51;;;;;;;9.38;8.43;;;;;;;4.66;78.74;98408.59;10261358;28;20653;-65
2021/11/28 18:10:53;;;;;;;8.40;7.53;;;;;;;4.75;78.93;98412.25;10223840;28;20055;-64
2021/11/28 18:15:54;;;;;;;9.30;8.45;;;;;;;4.66;79.34;98402.50;10227700;28;20573;-65
2021/11/28 18:20:56;;;;;;;12.80;11.00;;;;;;;4.60;78.75;98409.97;10261424;28;20046;-65
2021/11/28 18:25:57;;;;;;;15.88;14.25;;;;;;;4.69;78.30;98412.78;10267092;28;20141;-66
2021/11/28 18:30:59;;;;;;;10.60;9.57;;;;;;;4.56;78.71;98413.84;10267729;28;20589;-65
2021/11/28 18:36:02;;;;;;;15.27;13.15;;;;;;;4.53;79.20;98419.34;10262516;28;20047;-65
2021/11/28 18:41:03;;;;;;;12.30;10.68;;;;;;;4.50;79.74;98419.59;10259712;28;20046;-66
2021/11/28 18:46:05;;;;;;;11.25;9.25;;;;;;;4.42;80.28;98411.53;10282927;28;20054;-65
2021/11/28 18:51:11;;;;;;;11.60;9.73;;;;;;;4.43;80.10;98435.09;10263142;28;20053;-65
2021/11/28 18:56:13;;;;;;;12.90;9.82;;;;;;;4.47;80.29;98440.94;10267037;28;20585;-65
2021/11/28 19:01:15;;;;;;;11.82;10.63;;;;;;;4.54;79.53;98431.56;10258027;28;20051;-65
2021/11/28 19:06:17;;;;;;;11.00;9.90;;;;;;;4.54;79.63;98436.84;10267805;28;20529;-64
2021/11/28 19:11:18;;;;;;;12.00;10.10;;;;;;;4.65;79.74;98448.28;10257327;28;20170;-67
2021/11/28 19:16:20;;;;;;;12.27;10.90;;;;;;;4.62;79.60;98448.53;10252915;28;20061;-66
2021/11/28 19:21:21;;;;;;;10.95;9.85;;;;;;;4.62;78.90;98444.09;10253704;28;20072;-65
2021/11/28 19:26:23;;;;;;;13.13;11.75;;;;;;;4.67;78.96;98441.06;10264561;28;20047;-66
2021/11/28 19:31:26;;;;;;;14.13;11.43;;;;;;;4.73;78.95;98440.56;10263962;28;20133;-66
2021/11/28 19:36:29;;;;;;;11.00;9.90;;;;;;;4.84;78.10;98447.56;10253072;28;20043;-65
2021/11/28 19:41:32;;;;;;;10.65;8.48;;;;;;;4.87;78.05;98453.38;10264273;28;20043;-66
2021/11/28 19:46:35;;;;;;;13.82;12.45;;;;;;;5.00;77.48;98460.22;10253329;28;20183;-65
2021/11/28 19:51:37;;;;;;;14.43;11.60;;;;;;;4.86;77.93;98462.25;10261247;28;20516;-65
2021/11/28 19:56:38;;;;;;;13.20;11.68;;;;;;;4.88;77.54;98460.34;10262135;28;20051;-66
2021/11/28 20:01:41;;;;;;;15.10;12.43;;;;;;;4.93;77.72;98476.59;10271127;28;20078;-65
2021/11/28 20:06:42;;;;;;;15.27;12.23;;;;;;;4.90;78.54;98462.84;10261016;28;20098;-65
2021/11/28 20:11:44;;;;;;;13.75;12.10;;;;;;;4.94;78.28;98474.81;10264498;28;20053;-65
2021/11/28 20:16:54;;;;;;;21.88;15.43;;;;;;;4.94;78.13;98474.81;10263439;28;20130;-66
2021/11/28 20:21:57;;;;;;;18.08;12.60;;;;;;;4.79;77.50;98471.66;10262222;28;20055;-66
2021/11/28 20:27:01;;;;;;;16.88;12.88;;;;;;;4.67;78.19;98488.50;10268178;28;20088;-66
2021/11/28 20:32:03;;;;;;;18.87;14.83;;;;;;;4.66;78.03;98487.69;10257145;28;20498;-65
2021/11/28 20:37:05;;;;;;;15.88;13.70;;;;;;;4.57;78.58;98477.91;10260317;28;20054;-65
2021/11/28 20:42:07;;;;;;;17.23;14.20;;;;;;;4.50;79.31;98487.28;10262711;28;20055;-69
2021/11/28 20:47:08;;;;;;;15.75;14.15;;;;;;;4.34;79.77;98485.09;10262550;28;20058;-66
2021/11/28 20:52:10;;;;;;;15.95;13.50;;;;;;;4.19;79.40;98474.88;10262324;28;20096;-68
2021/11/28 20:57:11;;;;;;;15.27;13.15;;;;;;;4.05;80.67;98493.59;10265034;28;20043;-65
2021/11/28 21:02:13;;;;;;;14.95;12.90;;;;;;;3.98;80.62;98503.78;10265909;28;20133;-65
2021/11/28 21:07:14;;;;;;;16.63;12.43;;;;;;;3.97;81.04;98502.13;10255754;28;20050;-65
2021/11/28 21:12:16;;;;;;;14.93;13.30;;;;;;;4.00;81.20;98503.66;10250530;28;20420;-65
2021/11/28 21:17:17;;;;;;;15.63;12.48;;;;;;;4.06;81.12;98508.44;10256505;28;20057;-66
2021/11/28 21:22:19;;;;;;;14.18;11.07;;;;;;;4.12;81.28;98515.84;10256352;28;20090;-65
2021/11/28 21:27:20;;;;;;;11.45;10.25;;;;;;;4.11;80.93;98511.50;10255988;28;20059;-66
2021/11/28 21:32:22;;;;;;;13.95;10.77;;;;;;;4.06;80.65;98514.53;10258939;28;20565;-66
2021/11/28 21:37:23;;;;;;;12.50;10.18;;;;;;;4.08;81.16;98524.94;10255988;28;20043;-66
2021/11/28 21:42:25;;;;;;;13.10;11.07;;;;;;;4.17;81.32;98534.72;10255457;28;20536;-65
2021/11/28 21:47:26;;;;;;;15.27;10.82;;;;;;;4.20;81.09;98531.00;10261524;28;20055;-65
2021/11/28 21:52:28;;;;;;;11.98;10.65;;;;;;;4.16;81.26;98538.34;10216458;28;20562;-65
2021/11/28 21:57:30;;;;;;;11.98;10.68;;;;;;;4.14;81.08;98527.06;10222565;28;20047;-65
2021/11/28 22:02:31;;;;;;;12.23;10.90;;;;;;;4.12;81.25;98539.53;10220427;28;20048;-64
2021/11/28 22:07:33;;;;;;;15.20;11.32;;;;;;;4.20;81.18;98544.16;10198009;28;20048;-66
2021/11/28 22:12:35;;;;;;;13.98;12.57;;;;;;;4.16;81.31;98537.47;10214295;28;20062;-65
2021/11/28 22:17:37;;;;;;;15.90;12.93;;;;;;;4.22;81.16;98542.28;10221258;28;20125;-65
2021/11/28 22:22:39;;;;;;;13.93;12.57;;;;;;;4.20;80.91;98550.28;10263043;28;20701;-65
2021/11/28 22:27:42;;;;;;;15.98;14.07;;;;;;;4.16;80.73;98548.00;10254458;28;20046;-65
2021/11/28 22:32:44;;;;;;;13.85;12.27;;;;;;;4.17;81.07;98555.78;10259190;28;20053;-67
2021/11/28 22:37:45;;;;;;;18.90;13.95;;;;;;;4.17;80.87;98576.84;10269810;28;20486;-66
2021/11/28 22:42:48;;;;;;;13.35;11.95;;;;;;;4.15;80.87;98568.25;10267645;28;20146;-66
2021/11/28 22:47:51;;;;;;;13.18;11.82;;;;;;;4.20;81.01;98566.09;10281118;28;20058;-66
2021/11/28 22:52:53;;;;;;;14.65;13.15;;;;;;;4.19;81.10;98572.31;10283941;28;20046;-66
2021/11/28 22:57:54;;;;;;;17.17;13.38;;;;;;;4.22;81.50;98574.69;10263716;28;20050;-66
2021/11/28 23:02:59;;;;;;;16.17;14.18;;;;;;;4.22;81.35;98577.34;10268062;28;20134;-66
2021/11/28 23:08:01;;;;;;;18.35;15.68;;;;;;;4.24;81.45;98577.22;10262758;28;20581;-65
2021/11/28 23:13:02;;;;;;;16.50;14.73;;;;;;;4.25;81.20;98576.25;10265842;28;20513;-65
2021/11/28 23:18:04;;;;;;;19.33;16.05;;;;;;;4.19;81.46;98576.75;10267585;28;20134;-65
2021/11/28 23:23:05;;;;;;;18.63;16.70;;;;;;;4.16;81.20;98591.00;10270420;28;20055;-65
2021/11/28 23:28:07;;;;;;;19.70;17.00;;;;;;;4.19;81.13;98598.66;10276137;28;20049;-66
2021/11/28 23:33:08;;;;;;;19.17;17.17;;;;;;;4.19;80.88;98596.03;10276205;28;20047;-65
2021/11/28 23:38:10;;;;;;;18.02;16.13;;;;;;;4.12;80.58;98605.38;10274606;28;20049;-65